Huvudsida
METAR-TAF:

METAR-TAF

Flygplatser :

Fua'amotos internationella flygplats

Tongatapu, Tonga

latitud: 21-14S, longitud: 175-09W, höjd: 38 m

Aktuellt väderrapport

Denna rapport gjordes för 1 timme och 5 minuter sedan, klockan 05:00 UTC
Vind 6 kt från syd/sydväst
Temperatur 26°C
Fuktighet 84%
Tryck 1005 hPa
Sikt 10 km eller mer
Spridda moln på en höjd av 1700 ft

METAR: NFTF 160500Z 21006KT 9999 SCT017 26/23 Q1005

Tid: 20:05 (06:05 UTC)

Väderprognos

Denna rapport gjordes för 1 timme och 0 minuter sedan, klockan 05:05 UTC
Prognos gäller från 16 kl. 06 UTC till 17 kl. 06 UTC
Vind 6 kt från syd/sydväst
Sikt 10 km eller mer
Spridda moln på en höjd av 1600 ft
Brutna moln på en höjd av 4000 ft

TAF: NFTF 160505Z 1606/1706 21006KT 9999 SCT016 BKN040

Aktuella väderrapporter och prognoser från 4000 flygplatser (METAR- och TAF-rapporter).

De tillgängliga stationerna syns som gula och röda prickar på kartan.

För musen över prickarna för att se namnen på stationerna.

Klicka sedan för att få väderrapporter och prognoser.

För att ändra kartan: Klicka på de gröna knapparna med ett svart kors på för att zooma in; den gröna knappen med ett streck på för att zooma ut; eller på de gröna pilarna för angränsande kartor.


METAR-TAF: